sensor_id;sensor_type;location;lat;lon;timestamp;pressure;altitude;pressure_sealevel;temperature;humidity
52949;BME280;38812;50.942;3.644;2023-10-19T00:00:09;99013.66;;;15.68;nan
52949;BME280;38812;50.942;3.644;2023-10-19T00:02:50;99005.19;;;15.63;nan
52949;BME280;38812;50.942;3.644;2023-10-19T00:07:45;99012.19;;;15.64;nan
52949;BME280;38812;50.942;3.644;2023-10-19T00:10:11;99008.69;;;15.64;nan
52949;BME280;38812;50.942;3.644;2023-10-19T00:12:40;99052.63;;;15.66;nan
52949;BME280;38812;50.942;3.644;2023-10-19T00:15:06;99026.38;;;15.63;nan
52949;BME280;38812;50.942;3.644;2023-10-19T00:19:58;99020.22;;;15.63;nan
52949;BME280;38812;50.942;3.644;2023-10-19T00:22:32;99011.66;;;15.59;nan
52949;BME280;38812;50.942;3.644;2023-10-19T00:25:01;99014.19;;;15.61;nan
52949;BME280;38812;50.942;3.644;2023-10-19T00:27:28;99009.84;;;15.60;nan
52949;BME280;38812;50.942;3.644;2023-10-19T00:29:54;99008.19;;;15.59;nan
52949;BME280;38812;50.942;3.644;2023-10-19T00:32:27;99018.78;;;15.59;nan
52949;BME280;38812;50.942;3.644;2023-10-19T00:34:54;99017.25;;;15.55;nan
52949;BME280;38812;50.942;3.644;2023-10-19T00:37:20;99056.22;;;15.53;nan
52949;BME280;38812;50.942;3.644;2023-10-19T00:39:57;99025.63;;;15.49;nan
52949;BME280;38812;50.942;3.644;2023-10-19T00:42:39;99022.03;;;15.50;nan
52949;BME280;38812;50.942;3.644;2023-10-19T00:45:11;99036.00;;;15.52;nan
52949;BME280;38812;50.942;3.644;2023-10-19T00:47:38;99025.19;;;15.55;nan
52949;BME280;38812;50.942;3.644;2023-10-19T00:50:08;99128.41;;;15.55;nan
52949;BME280;38812;50.942;3.644;2023-10-19T00:52:42;99024.88;;;15.47;nan
52949;BME280;38812;50.942;3.644;2023-10-19T00:55:13;99023.19;;;15.46;nan
52949;BME280;38812;50.942;3.644;2023-10-19T00:57:40;99026.88;;;15.43;nan
52949;BME280;38812;50.942;3.644;2023-10-19T01:00:09;99039.16;;;15.44;nan
52949;BME280;38812;50.942;3.644;2023-10-19T01:02:38;99047.00;;;15.46;nan
52949;BME280;38812;50.942;3.644;2023-10-19T01:05:11;99057.28;;;15.50;nan
52949;BME280;38812;50.942;3.644;2023-10-19T01:07:39;99053.44;;;15.41;nan
52949;BME280;38812;50.942;3.644;2023-10-19T01:10:10;99051.34;;;15.47;nan
52949;BME280;38812;50.942;3.644;2023-10-19T01:12:45;99053.66;;;15.38;nan
52949;BME280;38812;50.942;3.644;2023-10-19T01:15:13;99055.03;;;15.44;nan
52949;BME280;38812;50.942;3.644;2023-10-19T01:17:43;99054.94;;;15.46;nan
52949;BME280;38812;50.942;3.644;2023-10-19T01:20:11;99059.38;;;15.45;nan
52949;BME280;38812;50.942;3.644;2023-10-19T01:23:04;99062.78;;;15.47;nan
52949;BME280;38812;50.942;3.644;2023-10-19T01:25:55;99059.69;;;15.40;nan
52949;BME280;38812;50.942;3.644;2023-10-19T01:28:34;99058.53;;;15.44;nan
52949;BME280;38812;50.942;3.644;2023-10-19T01:31:13;99049.84;;;15.42;nan
52949;BME280;38812;50.942;3.644;2023-10-19T01:33:45;99071.22;;;15.39;nan
52949;BME280;38812;50.942;3.644;2023-10-19T01:36:12;99051.34;;;15.34;nan
52949;BME280;38812;50.942;3.644;2023-10-19T01:38:47;99052.19;;;15.34;nan
52949;BME280;38812;50.942;3.644;2023-10-19T01:41:13;99050.06;;;15.27;nan
52949;BME280;38812;50.942;3.644;2023-10-19T01:43:43;99048.78;;;15.20;nan
52949;BME280;38812;50.942;3.644;2023-10-19T01:46:10;99047.28;;;15.16;nan
52949;BME280;38812;50.942;3.644;2023-10-19T01:48:43;99054.19;;;15.18;nan
52949;BME280;38812;50.942;3.644;2023-10-19T01:51:10;99048.38;;;15.13;nan
52949;BME280;38812;50.942;3.644;2023-10-19T01:53:37;99045.41;;;15.05;nan
52949;BME280;38812;50.942;3.644;2023-10-19T01:56:13;99056.81;;;15.05;nan
52949;BME280;38812;50.942;3.644;2023-10-19T01:58:43;99031.63;;;15.00;nan
52949;BME280;38812;50.942;3.644;2023-10-19T02:01:11;99055.44;;;15.00;nan
52949;BME280;38812;50.942;3.644;2023-10-19T02:03:37;99059.13;;;14.97;nan
52949;BME280;38812;50.942;3.644;2023-10-19T02:06:07;99039.25;;;14.92;nan
52949;BME280;38812;50.942;3.644;2023-10-19T02:08:52;99055.31;;;14.89;nan
52949;BME280;38812;50.942;3.644;2023-10-19T02:11:25;99046.09;;;14.82;nan
52949;BME280;38812;50.942;3.644;2023-10-19T02:13:52;99035.31;;;14.85;nan
52949;BME280;38812;50.942;3.644;2023-10-19T02:16:20;99020.41;;;14.84;nan
52949;BME280;38812;50.942;3.644;2023-10-19T02:18:47;99016.81;;;14.85;nan
52949;BME280;38812;50.942;3.644;2023-10-19T02:21:13;99029.72;;;14.89;nan
52949;BME280;38812;50.942;3.644;2023-10-19T02:23:39;99008.59;;;14.89;nan
52949;BME280;38812;50.942;3.644;2023-10-19T02:26:09;99018.00;;;14.93;nan
52949;BME280;38812;50.942;3.644;2023-10-19T02:28:39;98999.06;;;14.87;nan
52949;BME280;38812;50.942;3.644;2023-10-19T02:31:05;98996.94;;;14.92;nan
52949;BME280;38812;50.942;3.644;2023-10-19T02:33:43;98989.97;;;14.91;nan
52949;BME280;38812;50.942;3.644;2023-10-19T02:36:13;98979.50;;;14.89;nan
52949;BME280;38812;50.942;3.644;2023-10-19T02:38:41;98989.75;;;14.94;nan
52949;BME280;38812;50.942;3.644;2023-10-19T02:41:09;98980.53;;;14.99;nan
52949;BME280;38812;50.942;3.644;2023-10-19T02:43:36;98994.41;;;15.03;nan
52949;BME280;38812;50.942;3.644;2023-10-19T02:46:01;98979.50;;;15.02;nan
52949;BME280;38812;50.942;3.644;2023-10-19T02:48:28;98973.47;;;15.00;nan
52949;BME280;38812;50.942;3.644;2023-10-19T02:50:53;98964.78;;;14.98;nan
52949;BME280;38812;50.942;3.644;2023-10-19T02:53:19;98970.81;;;15.00;nan
52949;BME280;38812;50.942;3.644;2023-10-19T02:55:44;98963.63;;;15.02;nan
52949;BME280;38812;50.942;3.644;2023-10-19T02:58:10;98957.59;;;15.00;nan
52949;BME280;38812;50.942;3.644;2023-10-19T03:00:39;98967.22;;;15.01;nan
52949;BME280;38812;50.942;3.644;2023-10-19T03:03:05;98984.97;;;14.99;nan
52949;BME280;38812;50.942;3.644;2023-10-19T03:05:32;98963.53;;;15.03;nan
52949;BME280;38812;50.942;3.644;2023-10-19T03:08:01;98999.69;;;15.03;nan
52949;BME280;38812;50.942;3.644;2023-10-19T03:10:31;98968.81;;;15.03;nan
52949;BME280;38812;50.942;3.644;2023-10-19T03:13:07;98972.41;;;15.02;nan
52949;BME280;38812;50.942;3.644;2023-10-19T03:15:33;98971.34;;;15.05;nan
52949;BME280;38812;50.942;3.644;2023-10-19T03:17:58;98947.97;;;14.99;nan
52949;BME280;38812;50.942;3.644;2023-10-19T03:20:25;98957.59;;;15.00;nan
52949;BME280;38812;50.942;3.644;2023-10-19T03:22:52;98960.97;;;15.02;nan
52949;BME280;38812;50.942;3.644;2023-10-19T03:25:17;98977.59;;;15.04;nan
52949;BME280;38812;50.942;3.644;2023-10-19T03:28:01;98957.59;;;15.00;nan
52949;BME280;38812;50.942;3.644;2023-10-19T03:30:47;99003.28;;;15.02;nan
52949;BME280;38812;50.942;3.644;2023-10-19T03:35:38;98964.56;;;15.01;nan
52949;BME280;38812;50.942;3.644;2023-10-19T03:38:07;98974.84;;;15.05;nan
52949;BME280;38812;50.942;3.644;2023-10-19T03:40:43;98969.56;;;15.05;nan
52949;BME280;38812;50.942;3.644;2023-10-19T03:43:20;98954.09;;;14.99;nan
52949;BME280;38812;50.942;3.644;2023-10-19T03:45:47;98953.78;;;15.04;nan
52949;BME280;38812;50.942;3.644;2023-10-19T03:48:18;98958.13;;;15.05;nan
52949;BME280;38812;50.942;3.644;2023-10-19T03:50:59;98961.50;;;15.07;nan
52949;BME280;38812;50.942;3.644;2023-10-19T03:53:27;98961.63;;;15.05;nan
52949;BME280;38812;50.942;3.644;2023-10-19T03:55:52;98946.59;;;15.06;nan
52949;BME280;38812;50.942;3.644;2023-10-19T03:58:20;98959.31;;;15.14;nan
52949;BME280;38812;50.942;3.644;2023-10-19T04:00:47;98956.75;;;15.12;nan
52949;BME280;38812;50.942;3.644;2023-10-19T04:03:14;98957.38;;;15.16;nan
52949;BME280;38812;50.942;3.644;2023-10-19T04:05:40;98958.22;;;15.16;nan
52949;BME280;38812;50.942;3.644;2023-10-19T04:08:06;98956.56;;;15.15;nan
52949;BME280;38812;50.942;3.644;2023-10-19T04:10:46;98966.38;;;15.13;nan
52949;BME280;38812;50.942;3.644;2023-10-19T04:13:31;98962.16;;;15.11;nan
52949;BME280;38812;50.942;3.644;2023-10-19T04:15:57;98956.63;;;15.01;nan
52949;BME280;38812;50.942;3.644;2023-10-19T04:20:50;98965.97;;;15.06;nan
52949;BME280;38812;50.942;3.644;2023-10-19T04:23:16;98962.47;;;15.06;nan
52949;BME280;38812;50.942;3.644;2023-10-19T04:25:41;98958.13;;;15.05;nan
52949;BME280;38812;50.942;3.644;2023-10-19T04:28:07;98969.88;;;15.14;nan
52949;BME280;38812;50.942;3.644;2023-10-19T04:30:34;98960.00;;;15.16;nan
52949;BME280;38812;50.942;3.644;2023-10-19T04:33:02;98966.16;;;15.16;nan
52949;BME280;38812;50.942;3.644;2023-10-19T04:35:27;98962.06;;;15.12;nan
52949;BME280;38812;50.942;3.644;2023-10-19T04:37:57;98971.69;;;15.13;nan
52949;BME280;38812;50.942;3.644;2023-10-19T04:40:23;98954.31;;;15.09;nan
52949;BME280;38812;50.942;3.644;2023-10-19T04:42:52;98963.75;;;15.13;nan
52949;BME280;38812;50.942;3.644;2023-10-19T04:45:18;98961.09;;;15.13;nan
52949;BME280;38812;50.942;3.644;2023-10-19T04:47:44;98942.59;;;15.13;nan
52949;BME280;38812;50.942;3.644;2023-10-19T04:50:10;98954.84;;;15.14;nan
52949;BME280;38812;50.942;3.644;2023-10-19T04:52:36;98960.16;;;15.14;nan
52949;BME280;38812;50.942;3.644;2023-10-19T04:55:02;98945.34;;;15.12;nan
52949;BME280;38812;50.942;3.644;2023-10-19T04:57:28;98937.28;;;15.13;nan
52949;BME280;38812;50.942;3.644;2023-10-19T04:59:53;98951.25;;;15.15;nan
52949;BME280;38812;50.942;3.644;2023-10-19T05:02:19;98939.19;;;15.11;nan
52949;BME280;38812;50.942;3.644;2023-10-19T05:04:44;98943.94;;;15.06;nan
52949;BME280;38812;50.942;3.644;2023-10-19T05:07:10;98943.22;;;15.04;nan
52949;BME280;38812;50.942;3.644;2023-10-19T05:09:42;98978.34;;;15.06;nan
52949;BME280;38812;50.942;3.644;2023-10-19T05:12:08;98948.09;;;15.10;nan
52949;BME280;38812;50.942;3.644;2023-10-19T05:14:38;98931.16;;;15.00;nan
52949;BME280;38812;50.942;3.644;2023-10-19T05:17:05;98943.41;;;15.01;nan
52949;BME280;38812;50.942;3.644;2023-10-19T05:19:34;98932.00;;;15.00;nan
52949;BME280;38812;50.942;3.644;2023-10-19T05:22:01;98939.94;;;15.00;nan
52949;BME280;38812;50.942;3.644;2023-10-19T05:24:27;98945.00;;;15.03;nan
52949;BME280;38812;50.942;3.644;2023-10-19T05:26:53;98941.72;;;15.00;nan
52949;BME280;38812;50.942;3.644;2023-10-19T05:29:20;98962.13;;;14.98;nan
52949;BME280;38812;50.942;3.644;2023-10-19T05:31:45;98949.56;;;15.01;nan
52949;BME280;38812;50.942;3.644;2023-10-19T05:34:11;98940.25;;;14.96;nan
52949;BME280;38812;50.942;3.644;2023-10-19T05:39:02;98935.69;;;14.98;nan
52949;BME280;38812;50.942;3.644;2023-10-19T05:41:29;98938.22;;;14.99;nan
52949;BME280;38812;50.942;3.644;2023-10-19T05:43:56;98935.69;;;14.98;nan
52949;BME280;38812;50.942;3.644;2023-10-19T05:46:22;98933.25;;;14.95;nan
52949;BME280;38812;50.942;3.644;2023-10-19T05:48:50;98925.56;;;14.92;nan
52949;BME280;38812;50.942;3.644;2023-10-19T05:53:42;98928.41;;;14.89;nan
52949;BME280;38812;50.942;3.644;2023-10-19T05:56:09;98911.47;;;14.79;nan
52949;BME280;38812;50.942;3.644;2023-10-19T05:58:34;98915.91;;;14.78;nan
52949;BME280;38812;50.942;3.644;2023-10-19T06:01:00;98919.81;;;14.72;nan
52949;BME280;38812;50.942;3.644;2023-10-19T06:03:25;98906.84;;;14.69;nan
52949;BME280;38812;50.942;3.644;2023-10-19T06:05:50;98897.63;;;14.62;nan
52949;BME280;38812;50.942;3.644;2023-10-19T06:08:16;98868.78;;;14.59;nan
52949;BME280;38812;50.942;3.644;2023-10-19T06:10:41;98868.56;;;14.62;nan
52949;BME280;38812;50.942;3.644;2023-10-19T06:13:07;98896.88;;;14.60;nan
52949;BME280;38812;50.942;3.644;2023-10-19T06:15:35;98867.72;;;14.49;nan
52949;BME280;38812;50.942;3.644;2023-10-19T06:18:01;98864.25;;;14.49;nan
52949;BME280;38812;50.942;3.644;2023-10-19T06:20:26;98861.50;;;14.50;nan
52949;BME280;38812;50.942;3.644;2023-10-19T06:22:58;98856.41;;;14.47;nan
52949;BME280;38812;50.942;3.644;2023-10-19T06:25:30;98850.88;;;14.37;nan
52949;BME280;38812;50.942;3.644;2023-10-19T06:27:55;98849.47;;;14.32;nan
52949;BME280;38812;50.942;3.644;2023-10-19T06:30:25;98856.03;;;14.26;nan
52949;BME280;38812;50.942;3.644;2023-10-19T06:32:54;98841.66;;;14.30;nan
52949;BME280;38812;50.942;3.644;2023-10-19T06:35:20;98824.66;;;14.22;nan
52949;BME280;38812;50.942;3.644;2023-10-19T06:37:46;98835.44;;;14.19;nan
52949;BME280;38812;50.942;3.644;2023-10-19T06:40:13;98828.25;;;14.33;nan
52949;BME280;38812;50.942;3.644;2023-10-19T06:42:45;98816.72;;;14.34;nan
52949;BME280;38812;50.942;3.644;2023-10-19T06:45:12;98809.28;;;14.41;nan
52949;BME280;38812;50.942;3.644;2023-10-19T06:47:45;98802.09;;;14.43;nan
52949;BME280;38812;50.942;3.644;2023-10-19T06:50:18;98824.50;;;14.50;nan
52949;BME280;38812;50.942;3.644;2023-10-19T06:52:45;98822.06;;;14.60;nan
52949;BME280;38812;50.942;3.644;2023-10-19T06:55:13;98813.16;;;14.61;nan
52949;BME280;38812;50.942;3.644;2023-10-19T06:57:43;98814.88;;;14.62;nan
52949;BME280;38812;50.942;3.644;2023-10-19T07:00:19;98807.25;;;14.57;nan
52949;BME280;38812;50.942;3.644;2023-10-19T07:02:48;98813.06;;;14.62;nan
52949;BME280;38812;50.942;3.644;2023-10-19T07:05:16;98825.22;;;14.65;nan
52949;BME280;38812;50.942;3.644;2023-10-19T07:07:50;98829.47;;;14.67;nan
52949;BME280;38812;50.942;3.644;2023-10-19T07:10:21;98835.25;;;14.72;nan
52949;BME280;38812;50.942;3.644;2023-10-19T07:12:50;98820.56;;;14.68;nan
52949;BME280;38812;50.942;3.644;2023-10-19T07:15:16;98822.28;;;14.69;nan
52949;BME280;38812;50.942;3.644;2023-10-19T07:17:46;98831.66;;;14.73;nan
52949;BME280;38812;50.942;3.644;2023-10-19T07:20:13;98827.22;;;14.74;nan
52949;BME280;38812;50.942;3.644;2023-10-19T07:22:59;98840.97;;;14.79;nan
52949;BME280;38812;50.942;3.644;2023-10-19T07:25:43;98825.00;;;14.81;nan
52949;BME280;38812;50.942;3.644;2023-10-19T07:28:10;98814.09;;;14.72;nan
52949;BME280;38812;50.942;3.644;2023-10-19T07:30:37;98837.91;;;14.85;nan
52949;BME280;38812;50.942;3.644;2023-10-19T07:33:02;98809.97;;;14.81;nan
52949;BME280;38812;50.942;3.644;2023-10-19T07:35:34;98815.06;;;14.84;nan
52949;BME280;38812;50.942;3.644;2023-10-19T07:38:00;98804.25;;;14.74;nan
52949;BME280;38812;50.942;3.644;2023-10-19T07:40:26;98788.84;;;14.81;nan
52949;BME280;38812;50.942;3.644;2023-10-19T07:42:53;98811.25;;;14.88;nan
52949;BME280;38812;50.942;3.644;2023-10-19T07:45:19;98801.72;;;14.86;nan
52949;BME280;38812;50.942;3.644;2023-10-19T07:47:44;98818.00;;;14.92;nan
52949;BME280;38812;50.942;3.644;2023-10-19T07:50:14;98815.69;;;14.88;nan
52949;BME280;38812;50.942;3.644;2023-10-19T07:52:46;98812.72;;;14.92;nan
52949;BME280;38812;50.942;3.644;2023-10-19T07:55:15;98800.63;;;15.01;nan
52949;BME280;38812;50.942;3.644;2023-10-19T07:57:42;98810.25;;;15.15;nan
52949;BME280;38812;50.942;3.644;2023-10-19T08:00:08;98844.16;;;15.33;nan
52949;BME280;38812;50.942;3.644;2023-10-19T08:02:36;98811.69;;;16.14;nan
52949;BME280;38812;50.942;3.644;2023-10-19T08:05:03;98844.59;;;16.34;nan
52949;BME280;38812;50.942;3.644;2023-10-19T08:07:29;98892.88;;;16.26;nan
52949;BME280;38812;50.942;3.644;2023-10-19T08:09:55;98903.31;;;16.52;nan
52949;BME280;38812;50.942;3.644;2023-10-19T08:12:25;98878.69;;;16.85;nan
52949;BME280;38812;50.942;3.644;2023-10-19T08:14:52;98879.66;;;17.17;nan
52949;BME280;38812;50.942;3.644;2023-10-19T08:17:17;98883.84;;;17.42;nan
52949;BME280;38812;50.942;3.644;2023-10-19T08:19:43;98896.19;;;16.87;nan
52949;BME280;38812;50.942;3.644;2023-10-19T08:22:08;98898.00;;;16.87;nan
52949;BME280;38812;50.942;3.644;2023-10-19T08:24:35;98885.44;;;16.66;nan
52949;BME280;38812;50.942;3.644;2023-10-19T08:27:03;98893.47;;;16.30;nan
52949;BME280;38812;50.942;3.644;2023-10-19T08:29:31;98882.13;;;16.17;nan
52949;BME280;38812;50.942;3.644;2023-10-19T08:31:57;98871.97;;;16.10;nan
52949;BME280;38812;50.942;3.644;2023-10-19T08:36:50;98882.78;;;17.00;nan
52949;BME280;38812;50.942;3.644;2023-10-19T08:39:15;98880.41;;;17.08;nan
52949;BME280;38812;50.942;3.644;2023-10-19T08:41:41;98886.44;;;17.10;nan
52949;BME280;38812;50.942;3.644;2023-10-19T08:44:07;98895.94;;;17.01;nan
52949;BME280;38812;50.942;3.644;2023-10-19T08:46:40;98876.75;;;16.75;nan
52949;BME280;38812;50.942;3.644;2023-10-19T08:49:09;98869.47;;;16.55;nan
52949;BME280;38812;50.942;3.644;2023-10-19T08:51:37;98856.53;;;16.39;nan
52949;BME280;38812;50.942;3.644;2023-10-19T08:54:04;98859.75;;;16.32;nan
52949;BME280;38812;50.942;3.644;2023-10-19T08:56:31;98863.34;;;16.20;nan
52949;BME280;38812;50.942;3.644;2023-10-19T08:58:59;98858.22;;;16.05;nan
52949;BME280;38812;50.942;3.644;2023-10-19T09:01:26;98865.00;;;16.09;nan
52949;BME280;38812;50.942;3.644;2023-10-19T09:03:53;98862.47;;;16.08;nan
52949;BME280;38812;50.942;3.644;2023-10-19T09:06:20;98901.22;;;16.09;nan
52949;BME280;38812;50.942;3.644;2023-10-19T09:08:47;98861.91;;;16.16;nan
52949;BME280;38812;50.942;3.644;2023-10-19T09:11:13;98867.47;;;16.24;nan
52949;BME280;38812;50.942;3.644;2023-10-19T09:13:48;98858.91;;;16.31;nan
52949;BME280;38812;50.942;3.644;2023-10-19T09:16:19;98865.78;;;16.34;nan
52949;BME280;38812;50.942;3.644;2023-10-19T09:18:49;98860.53;;;16.45;nan
52949;BME280;38812;50.942;3.644;2023-10-19T09:21:16;98868.38;;;16.58;nan
52949;BME280;38812;50.942;3.644;2023-10-19T09:23:52;98869.00;;;16.61;nan
52949;BME280;38812;50.942;3.644;2023-10-19T09:26:18;98874.34;;;16.72;nan
52949;BME280;38812;50.942;3.644;2023-10-19T09:28:49;98903.63;;;16.71;nan
52949;BME280;38812;50.942;3.644;2023-10-19T09:31:14;98890.75;;;16.66;nan
52949;BME280;38812;50.942;3.644;2023-10-19T09:33:42;98869.75;;;16.63;nan
52949;BME280;38812;50.942;3.644;2023-10-19T09:36:09;98877.22;;;16.69;nan
52949;BME280;38812;50.942;3.644;2023-10-19T09:38:51;98893.00;;;16.71;nan
52949;BME280;38812;50.942;3.644;2023-10-19T09:41:25;98883.47;;;16.68;nan
52949;BME280;38812;50.942;3.644;2023-10-19T09:44:01;98872.88;;;16.68;nan
52949;BME280;38812;50.942;3.644;2023-10-19T09:46:32;98853.84;;;16.63;nan
52949;BME280;38812;50.942;3.644;2023-10-19T09:48:59;98883.94;;;16.62;nan
52949;BME280;38812;50.942;3.644;2023-10-19T09:51:24;98852.13;;;16.62;nan
52949;BME280;38812;50.942;3.644;2023-10-19T09:56:26;98842.28;;;16.75;nan
52949;BME280;38812;50.942;3.644;2023-10-19T09:58:57;98870.72;;;16.73;nan
52949;BME280;38812;50.942;3.644;2023-10-19T10:01:24;98833.84;;;16.70;nan
52949;BME280;38812;50.942;3.644;2023-10-19T10:03:52;98839.72;;;16.63;nan
52949;BME280;38812;50.942;3.644;2023-10-19T10:06:28;98882.91;;;16.65;nan
52949;BME280;38812;50.942;3.644;2023-10-19T10:08:55;98832.84;;;16.60;nan
52949;BME280;38812;50.942;3.644;2023-10-19T10:11:23;98833.06;;;16.57;nan
52949;BME280;38812;50.942;3.644;2023-10-19T10:13:50;98827.53;;;16.60;nan
52949;BME280;38812;50.942;3.644;2023-10-19T10:16:17;98853.44;;;16.57;nan
52949;BME280;38812;50.942;3.644;2023-10-19T10:18:46;98819.31;;;16.52;nan
52949;BME280;38812;50.942;3.644;2023-10-19T10:21:20;98794.88;;;16.37;nan
52949;BME280;38812;50.942;3.644;2023-10-19T10:23:51;98809.47;;;16.43;nan
52949;BME280;38812;50.942;3.644;2023-10-19T10:26:19;98790.16;;;16.30;nan
52949;BME280;38812;50.942;3.644;2023-10-19T10:28:50;98773.75;;;16.25;nan
52949;BME280;38812;50.942;3.644;2023-10-19T10:31:34;98768.34;;;16.15;nan
52949;BME280;38812;50.942;3.644;2023-10-19T10:34:01;98740.38;;;16.11;nan
52949;BME280;38812;50.942;3.644;2023-10-19T10:36:57;98721.72;;;16.13;nan
52949;BME280;38812;50.942;3.644;2023-10-19T10:39:23;98721.47;;;16.04;nan
52949;BME280;38812;50.942;3.644;2023-10-19T10:41:58;98716.78;;;16.08;nan
52949;BME280;38812;50.942;3.644;2023-10-19T10:47:39;98699.09;;;16.08;nan
52949;BME280;38812;50.942;3.644;2023-10-19T10:50:00;98672.84;;;16.28;nan
52949;BME280;38812;50.942;3.644;2023-10-19T10:55:10;98709.91;;;16.95;nan
52949;BME280;38812;50.942;3.644;2023-10-19T10:57:43;98754.38;;;17.77;nan
52949;BME280;38812;50.942;3.644;2023-10-19T11:00:10;98764.38;;;17.85;nan
52949;BME280;38812;50.942;3.644;2023-10-19T11:02:41;98790.44;;;17.91;nan
52949;BME280;38812;50.942;3.644;2023-10-19T11:05:15;98752.16;;;17.94;nan
52949;BME280;38812;50.942;3.644;2023-10-19T11:07:49;98744.91;;;17.75;nan
52949;BME280;38812;50.942;3.644;2023-10-19T11:10:30;98746.44;;;17.45;nan
52949;BME280;38812;50.942;3.644;2023-10-19T11:13:10;98747.53;;;17.43;nan
52949;BME280;38812;50.942;3.644;2023-10-19T11:15:37;98748.72;;;17.50;nan
52949;BME280;38812;50.942;3.644;2023-10-19T11:18:03;98754.34;;;17.57;nan
52949;BME280;38812;50.942;3.644;2023-10-19T11:20:29;98743.66;;;17.47;nan
52949;BME280;38812;50.942;3.644;2023-10-19T11:22:56;98755.22;;;17.46;nan
52949;BME280;38812;50.942;3.644;2023-10-19T11:25:23;98759.47;;;17.37;nan
52949;BME280;38812;50.942;3.644;2023-10-19T11:27:49;98761.34;;;17.26;nan
52949;BME280;38812;50.942;3.644;2023-10-19T11:30:29;98742.63;;;17.27;nan
52949;BME280;38812;50.942;3.644;2023-10-19T11:32:57;98777.69;;;17.42;nan
52949;BME280;38812;50.942;3.644;2023-10-19T11:35:27;98759.38;;;17.71;nan
52949;BME280;38812;50.942;3.644;2023-10-19T11:38:00;98754.16;;;18.01;nan
52949;BME280;38812;50.942;3.644;2023-10-19T11:40:28;98746.38;;;18.09;nan
52949;BME280;38812;50.942;3.644;2023-10-19T11:42:53;98737.22;;;18.02;nan
52949;BME280;38812;50.942;3.644;2023-10-19T11:45:22;98752.47;;;18.00;nan
52949;BME280;38812;50.942;3.644;2023-10-19T11:47:50;98748.53;;;17.95;nan
52949;BME280;38812;50.942;3.644;2023-10-19T11:50:16;98727.56;;;18.01;nan
52949;BME280;38812;50.942;3.644;2023-10-19T11:52:44;98726.16;;;18.18;nan
52949;BME280;38812;50.942;3.644;2023-10-19T11:55:11;98723.84;;;18.34;nan
52949;BME280;38812;50.942;3.644;2023-10-19T11:57:39;98715.06;;;18.43;nan
52949;BME280;38812;50.942;3.644;2023-10-19T12:00:06;98710.84;;;18.41;nan
52949;BME280;38812;50.942;3.644;2023-10-19T12:02:37;98720.75;;;18.29;nan
52949;BME280;38812;50.942;3.644;2023-10-19T12:05:04;98716.94;;;18.01;nan
52949;BME280;38812;50.942;3.644;2023-10-19T12:07:29;98711.13;;;17.87;nan
52949;BME280;38812;50.942;3.644;2023-10-19T12:12:21;98721.25;;;17.72;nan
52949;BME280;38812;50.942;3.644;2023-10-19T12:14:46;98711.13;;;17.66;nan
52949;BME280;38812;50.942;3.644;2023-10-19T12:19:37;98708.22;;;17.58;nan
52949;BME280;38812;50.942;3.644;2023-10-19T12:22:03;98708.22;;;17.58;nan
52949;BME280;38812;50.942;3.644;2023-10-19T12:24:28;98686.69;;;17.51;nan
52949;BME280;38812;50.942;3.644;2023-10-19T12:26:54;98703.16;;;17.55;nan
52949;BME280;38812;50.942;3.644;2023-10-19T12:29:20;98697.59;;;17.58;nan
52949;BME280;38812;50.942;3.644;2023-10-19T12:31:47;98690.09;;;17.63;nan
52949;BME280;38812;50.942;3.644;2023-10-19T12:34:12;98695.25;;;17.75;nan
52949;BME280;38812;50.942;3.644;2023-10-19T12:36:38;98696.50;;;17.92;nan
52949;BME280;38812;50.942;3.644;2023-10-19T12:39:04;98677.91;;;18.23;nan
52949;BME280;38812;50.942;3.644;2023-10-19T12:41:30;98678.88;;;18.52;nan
52949;BME280;38812;50.942;3.644;2023-10-19T12:43:57;98677.09;;;18.62;nan
52949;BME280;38812;50.942;3.644;2023-10-19T12:46:26;98688.09;;;18.78;nan
52949;BME280;38812;50.942;3.644;2023-10-19T12:48:55;98665.38;;;18.74;nan
52949;BME280;38812;50.942;3.644;2023-10-19T12:51:24;98665.59;;;19.02;nan
52949;BME280;38812;50.942;3.644;2023-10-19T12:53:54;98681.59;;;19.60;nan
52949;BME280;38812;50.942;3.644;2023-10-19T12:56:20;98676.66;;;19.84;nan
52949;BME280;38812;50.942;3.644;2023-10-19T12:58:46;98702.16;;;19.29;nan
52949;BME280;38812;50.942;3.644;2023-10-19T13:01:13;98693.59;;;19.15;nan
52949;BME280;38812;50.942;3.644;2023-10-19T13:03:45;98690.19;;;18.84;nan
52949;BME280;38812;50.942;3.644;2023-10-19T13:06:14;98688.25;;;18.56;nan
52949;BME280;38812;50.942;3.644;2023-10-19T13:08:39;98673.50;;;18.73;nan
52949;BME280;38812;50.942;3.644;2023-10-19T13:11:07;98672.88;;;19.00;nan
52949;BME280;38812;50.942;3.644;2023-10-19T13:13:33;98675.69;;;19.17;nan
52949;BME280;38812;50.942;3.644;2023-10-19T13:16:01;98698.13;;;19.54;nan
52949;BME280;38812;50.942;3.644;2023-10-19T13:18:31;98673.16;;;19.26;nan
52949;BME280;38812;50.942;3.644;2023-10-19T13:20:59;98669.59;;;18.87;nan
52949;BME280;38812;50.942;3.644;2023-10-19T13:23:30;98690.97;;;18.66;nan
52949;BME280;38812;50.942;3.644;2023-10-19T13:25:58;98685.88;;;18.53;nan
52949;BME280;38812;50.942;3.644;2023-10-19T13:28:35;98680.50;;;18.43;nan
52949;BME280;38812;50.942;3.644;2023-10-19T13:31:03;98688.94;;;18.48;nan
52949;BME280;38812;50.942;3.644;2023-10-19T13:33:29;98692.97;;;18.43;nan
52949;BME280;38812;50.942;3.644;2023-10-19T13:35:54;98676.75;;;18.46;nan
52949;BME280;38812;50.942;3.644;2023-10-19T13:38:19;98665.13;;;18.47;nan
52949;BME280;38812;50.942;3.644;2023-10-19T13:40:45;98654.84;;;18.63;nan
52949;BME280;38812;50.942;3.644;2023-10-19T13:43:12;98648.59;;;18.74;nan
52949;BME280;38812;50.942;3.644;2023-10-19T13:45:42;98658.25;;;18.84;nan
52949;BME280;38812;50.942;3.644;2023-10-19T13:48:12;98641.88;;;18.79;nan
52949;BME280;38812;50.942;3.644;2023-10-19T13:50:47;98648.63;;;18.83;nan
52949;BME280;38812;50.942;3.644;2023-10-19T13:53:13;98645.66;;;18.77;nan
52949;BME280;38812;50.942;3.644;2023-10-19T13:55:40;98631.38;;;18.78;nan
52949;BME280;38812;50.942;3.644;2023-10-19T13:58:05;98640.91;;;18.80;nan
52949;BME280;38812;50.942;3.644;2023-10-19T14:00:34;98629.28;;;18.81;nan